sensor_id;sensor_type;location;lat;lon;timestamp;pressure;altitude;pressure_sealevel;temperature;humidity
51986;BME280;38002;53.296;6.600;2023-05-01T00:03:10;102196.78;;;7.66;77.07
51986;BME280;38002;53.296;6.600;2023-05-01T00:08:11;102195.03;;;7.65;77.24
51986;BME280;38002;53.296;6.600;2023-05-01T00:13:11;102182.81;;;7.59;76.95
51986;BME280;38002;53.296;6.600;2023-05-01T00:18:12;102187.72;;;7.54;76.41
51986;BME280;38002;53.296;6.600;2023-05-01T00:23:12;102189.22;;;7.46;77.23
51986;BME280;38002;53.296;6.600;2023-05-01T00:28:13;102178.59;;;7.43;77.44
51986;BME280;38002;53.296;6.600;2023-05-01T00:33:13;102173.41;;;7.40;77.06
51986;BME280;38002;53.296;6.600;2023-05-01T00:38:14;102167.38;;;7.36;77.58
51986;BME280;38002;53.296;6.600;2023-05-01T00:43:15;102166.72;;;7.33;77.80
51986;BME280;38002;53.296;6.600;2023-05-01T00:48:15;102165.22;;;7.28;77.37
51986;BME280;38002;53.296;6.600;2023-05-01T00:53:16;102159.13;;;7.25;77.49
51986;BME280;38002;53.296;6.600;2023-05-01T00:58:18;102155.03;;;7.19;78.04
51986;BME280;38002;53.296;6.600;2023-05-01T01:03:18;102141.63;;;7.18;77.68
51986;BME280;38002;53.296;6.600;2023-05-01T01:08:32;102139.00;;;7.16;77.80
51986;BME280;38002;53.296;6.600;2023-05-01T01:13:40;102134.69;;;7.14;78.20
51986;BME280;38002;53.296;6.600;2023-05-01T01:18:51;102127.69;;;7.11;77.75
51986;BME280;38002;53.296;6.600;2023-05-01T01:24:34;102118.06;;;7.07;78.89
51986;BME280;38002;53.296;6.600;2023-05-01T01:35:07;102104.84;;;7.03;78.08
51986;BME280;38002;53.296;6.600;2023-05-01T01:40:16;102105.91;;;7.00;78.58
51986;BME280;38002;53.296;6.600;2023-05-01T01:45:21;102089.91;;;6.97;78.13
51986;BME280;38002;53.296;6.600;2023-05-01T01:50:25;102084.94;;;6.91;78.22
51986;BME280;38002;53.296;6.600;2023-05-01T01:55:30;102075.84;;;6.92;78.47
51986;BME280;38002;53.296;6.600;2023-05-01T02:00:34;102073.47;;;6.88;78.58
51986;BME280;38002;53.296;6.600;2023-05-01T02:05:35;102070.22;;;6.82;78.92
51986;BME280;38002;53.296;6.600;2023-05-01T02:10:39;102061.38;;;6.80;78.96
51986;BME280;38002;53.296;6.600;2023-05-01T02:15:39;102055.34;;;6.77;78.90
51986;BME280;38002;53.296;6.600;2023-05-01T02:20:41;102049.16;;;6.75;78.66
51986;BME280;38002;53.296;6.600;2023-05-01T02:25:43;102048.41;;;6.73;79.08
51986;BME280;38002;53.296;6.600;2023-05-01T02:30:44;102028.72;;;6.71;78.85
51986;BME280;38002;53.296;6.600;2023-05-01T02:35:46;102023.53;;;6.68;78.93
51986;BME280;38002;53.296;6.600;2023-05-01T02:40:51;102016.63;;;6.64;78.86
51986;BME280;38002;53.296;6.600;2023-05-01T02:45:52;102008.63;;;6.62;79.17
51986;BME280;38002;53.296;6.600;2023-05-01T02:50:54;101989.16;;;6.57;79.07
51986;BME280;38002;53.296;6.600;2023-05-01T02:55:55;101989.63;;;6.51;81.99
51986;BME280;38002;53.296;6.600;2023-05-01T03:00:55;101987.00;;;6.50;79.26
51986;BME280;38002;53.296;6.600;2023-05-01T03:05:56;101976.53;;;6.45;79.51
51986;BME280;38002;53.296;6.600;2023-05-01T03:10:56;101975.00;;;6.41;79.61
51986;BME280;38002;53.296;6.600;2023-05-01T03:15:57;101964.44;;;6.38;79.28
51986;BME280;38002;53.296;6.600;2023-05-01T03:20:57;101952.94;;;6.34;79.78
51986;BME280;38002;53.296;6.600;2023-05-01T03:25:58;101948.66;;;6.32;79.66
51986;BME280;38002;53.296;6.600;2023-05-01T03:30:58;101942.47;;;6.30;79.81
51986;BME280;38002;53.296;6.600;2023-05-01T03:36:03;101932.53;;;6.30;79.58
51986;BME280;38002;53.296;6.600;2023-05-01T03:41:05;101939.03;;;6.28;79.61
51986;BME280;38002;53.296;6.600;2023-05-01T03:46:05;101930.06;;;6.27;80.15
51986;BME280;38002;53.296;6.600;2023-05-01T03:51:06;101929.31;;;6.25;79.66
51986;BME280;38002;53.296;6.600;2023-05-01T03:56:06;101923.06;;;6.25;79.60
51986;BME280;38002;53.296;6.600;2023-05-01T04:01:08;101932.97;;;6.24;79.31
51986;BME280;38002;53.296;6.600;2023-05-01T04:06:09;101921.41;;;6.22;79.63
51986;BME280;38002;53.296;6.600;2023-05-01T04:11:09;101916.47;;;6.16;79.49
51986;BME280;38002;53.296;6.600;2023-05-01T04:16:10;101914.72;;;6.15;79.43
51986;BME280;38002;53.296;6.600;2023-05-01T04:21:11;101920.34;;;6.12;80.07
51986;BME280;38002;53.296;6.600;2023-05-01T04:26:13;101910.75;;;6.08;80.40
51986;BME280;38002;53.296;6.600;2023-05-01T04:31:14;101908.13;;;6.07;80.48
51986;BME280;38002;53.296;6.600;2023-05-01T04:36:14;101909.00;;;6.07;80.62
51986;BME280;38002;53.296;6.600;2023-05-01T04:41:15;101902.63;;;6.08;80.40
51986;BME280;38002;53.296;6.600;2023-05-01T04:46:15;101887.28;;;6.09;80.53
51986;BME280;38002;53.296;6.600;2023-05-01T04:51:16;101894.09;;;6.14;80.52
51986;BME280;38002;53.296;6.600;2023-05-01T04:56:16;101893.03;;;6.17;80.66
51986;BME280;38002;53.296;6.600;2023-05-01T05:01:17;101895.28;;;6.23;81.06
51986;BME280;38002;53.296;6.600;2023-05-01T05:06:17;101902.19;;;6.27;80.81
51986;BME280;38002;53.296;6.600;2023-05-01T05:11:18;101896.47;;;6.31;80.98
51986;BME280;38002;53.296;6.600;2023-05-01T05:16:18;101889.75;;;6.37;81.30
51986;BME280;38002;53.296;6.600;2023-05-01T05:21:19;101891.03;;;6.44;81.92
51986;BME280;38002;53.296;6.600;2023-05-01T05:26:19;101894.91;;;6.53;81.22
51986;BME280;38002;53.296;6.600;2023-05-01T05:31:20;101900.84;;;6.58;81.79
51986;BME280;38002;53.296;6.600;2023-05-01T05:36:21;101881.50;;;6.64;81.52
51986;BME280;38002;53.296;6.600;2023-05-01T05:41:21;101887.94;;;6.74;81.66
51986;BME280;38002;53.296;6.600;2023-05-01T05:46:22;101873.75;;;6.83;81.75
51986;BME280;38002;53.296;6.600;2023-05-01T05:51:23;101877.50;;;6.93;81.23
51986;BME280;38002;53.296;6.600;2023-05-01T05:56:23;101875.00;;;7.03;81.68
51986;BME280;38002;53.296;6.600;2023-05-01T06:01:24;101876.16;;;7.11;81.71
51986;BME280;38002;53.296;6.600;2023-05-01T06:06:24;101868.31;;;7.19;81.86
51986;BME280;38002;53.296;6.600;2023-05-01T06:11:26;101860.47;;;7.27;81.53
51986;BME280;38002;53.296;6.600;2023-05-01T06:16:27;101863.97;;;7.41;81.16
51986;BME280;38002;53.296;6.600;2023-05-01T06:21:27;101844.34;;;7.50;80.88
51986;BME280;38002;53.296;6.600;2023-05-01T06:26:28;101849.75;;;7.61;80.81
51986;BME280;38002;53.296;6.600;2023-05-01T06:31:28;101843.91;;;7.78;80.90
51986;BME280;38002;53.296;6.600;2023-05-01T06:36:29;101839.00;;;7.94;80.99
51986;BME280;38002;53.296;6.600;2023-05-01T06:41:30;101845.81;;;8.11;81.11
51986;BME280;38002;53.296;6.600;2023-05-01T06:46:31;101841.25;;;8.34;80.58
51986;BME280;38002;53.296;6.600;2023-05-01T06:51:33;101833.13;;;8.56;80.72
51986;BME280;38002;53.296;6.600;2023-05-01T06:56:33;101828.53;;;8.79;80.26
51986;BME280;38002;53.296;6.600;2023-05-01T07:01:34;101834.00;;;8.99;79.80
51986;BME280;38002;53.296;6.600;2023-05-01T07:06:35;101829.00;;;9.16;79.98
51986;BME280;38002;53.296;6.600;2023-05-01T07:11:35;101832.63;;;9.37;79.61
51986;BME280;38002;53.296;6.600;2023-05-01T07:16:36;101827.22;;;9.57;79.76
51986;BME280;38002;53.296;6.600;2023-05-01T07:21:37;101822.31;;;9.72;78.71
51986;BME280;38002;53.296;6.600;2023-05-01T07:26:37;101815.81;;;9.84;78.64
51986;BME280;38002;53.296;6.600;2023-05-01T07:31:38;101809.91;;;10.00;78.66
51986;BME280;38002;53.296;6.600;2023-05-01T07:36:40;101801.06;;;10.08;78.10
51986;BME280;38002;53.296;6.600;2023-05-01T07:41:41;101807.47;;;10.27;78.18
51986;BME280;38002;53.296;6.600;2023-05-01T07:46:42;101808.72;;;10.54;78.33
51986;BME280;38002;53.296;6.600;2023-05-01T07:51:42;101795.19;;;10.82;78.13
51986;BME280;38002;53.296;6.600;2023-05-01T07:56:44;101807.97;;;11.20;76.72
51986;BME280;38002;53.296;6.600;2023-05-01T08:01:45;101804.53;;;11.47;75.96
51986;BME280;38002;53.296;6.600;2023-05-01T08:06:45;101805.06;;;11.79;75.24
51986;BME280;38002;53.296;6.600;2023-05-01T08:11:45;101806.25;;;12.14;73.80
51986;BME280;38002;53.296;6.600;2023-05-01T08:16:46;101791.88;;;12.49;74.10
51986;BME280;38002;53.296;6.600;2023-05-01T08:21:46;101797.47;;;12.74;70.76
51986;BME280;38002;53.296;6.600;2023-05-01T08:26:47;101777.84;;;12.89;70.73
51986;BME280;38002;53.296;6.600;2023-05-01T08:31:48;101783.09;;;13.17;71.77
51986;BME280;38002;53.296;6.600;2023-05-01T08:36:49;101786.63;;;13.45;69.94
51986;BME280;38002;53.296;6.600;2023-05-01T08:41:49;101778.88;;;13.84;70.54
51986;BME280;38002;53.296;6.600;2023-05-01T08:47:11;101770.91;;;14.33;67.27
51986;BME280;38002;53.296;6.600;2023-05-01T08:58:32;101765.53;;;15.23;67.24
51986;BME280;38002;53.296;6.600;2023-05-01T09:03:35;101760.06;;;15.64;67.30
51986;BME280;38002;53.296;6.600;2023-05-01T09:08:36;101758.66;;;16.00;65.27
51986;BME280;38002;53.296;6.600;2023-05-01T09:13:37;101757.25;;;16.12;65.27
51986;BME280;38002;53.296;6.600;2023-05-01T09:56:01;101736.31;;;18.45;58.60
51986;BME280;38002;53.296;6.600;2023-05-01T10:01:02;101738.94;;;18.68;60.55
51986;BME280;38002;53.296;6.600;2023-05-01T10:06:03;101736.75;;;18.99;59.80
51986;BME280;38002;53.296;6.600;2023-05-01T10:11:03;101734.53;;;19.31;58.90
51986;BME280;38002;53.296;6.600;2023-05-01T10:16:26;101735.84;;;19.56;53.44
51986;BME280;38002;53.296;6.600;2023-05-01T10:21:27;101729.50;;;19.83;58.42
51986;BME280;38002;53.296;6.600;2023-05-01T10:26:28;101726.50;;;20.19;57.67
51986;BME280;38002;53.296;6.600;2023-05-01T10:31:29;101727.34;;;20.48;56.70
51986;BME280;38002;53.296;6.600;2023-05-01T10:36:53;101730.34;;;20.59;51.94
51986;BME280;38002;53.296;6.600;2023-05-01T10:42:06;101730.25;;;20.87;54.94
51986;BME280;38002;53.296;6.600;2023-05-01T10:58:10;101725.91;;;21.65;55.00
51986;BME280;38002;53.296;6.600;2023-05-01T11:08:37;101727.38;;;21.94;49.57
51986;BME280;38002;53.296;6.600;2023-05-01T11:14:16;101723.91;;;22.18;47.34
51986;BME280;38002;53.296;6.600;2023-05-01T11:24:30;101705.97;;;22.34;48.47
51986;BME280;38002;53.296;6.600;2023-05-01T11:29:31;101714.28;;;22.27;52.22
51986;BME280;38002;53.296;6.600;2023-05-01T11:34:34;101700.03;;;22.24;52.07
51986;BME280;38002;53.296;6.600;2023-05-01T11:39:37;101704.91;;;22.35;52.09
51986;BME280;38002;53.296;6.600;2023-05-01T11:44:37;101700.38;;;22.40;51.59
51986;BME280;38002;53.296;6.600;2023-05-01T11:49:38;101709.66;;;22.66;50.42
51986;BME280;38002;53.296;6.600;2023-05-01T11:54:46;101695.53;;;22.80;48.35
51986;BME280;38002;53.296;6.600;2023-05-01T11:59:47;101700.88;;;22.82;49.74
51986;BME280;38002;53.296;6.600;2023-05-01T12:04:48;101700.03;;;22.75;49.95
51986;BME280;38002;53.296;6.600;2023-05-01T12:09:49;101709.88;;;22.71;49.33
51986;BME280;38002;53.296;6.600;2023-05-01T12:14:50;101701.28;;;22.85;49.09
51986;BME280;38002;53.296;6.600;2023-05-01T12:19:51;101697.78;;;22.96;48.52
51986;BME280;38002;53.296;6.600;2023-05-01T12:24:52;101705.09;;;22.91;49.09
51986;BME280;38002;53.296;6.600;2023-05-01T12:29:53;101703.41;;;22.83;48.71
51986;BME280;38002;53.296;6.600;2023-05-01T12:34:54;101712.00;;;22.75;48.26
51986;BME280;38002;53.296;6.600;2023-05-01T12:39:55;101701.56;;;22.71;48.16
51986;BME280;38002;53.296;6.600;2023-05-01T12:45:00;101703.47;;;22.70;47.83
51986;BME280;38002;53.296;6.600;2023-05-01T12:50:02;101702.19;;;22.73;47.18
51986;BME280;38002;53.296;6.600;2023-05-01T12:55:03;101708.59;;;22.73;47.38
51986;BME280;38002;53.296;6.600;2023-05-01T13:00:05;101697.16;;;22.50;47.77
51986;BME280;38002;53.296;6.600;2023-05-01T13:05:07;101707.72;;;22.15;47.67
51986;BME280;38002;53.296;6.600;2023-05-01T13:10:09;101713.94;;;21.91;48.01
51986;BME280;38002;53.296;6.600;2023-05-01T13:15:20;101697.81;;;21.61;47.03
51986;BME280;38002;53.296;6.600;2023-05-01T13:20:25;101712.47;;;21.29;48.61
51986;BME280;38002;53.296;6.600;2023-05-01T13:25:28;101713.00;;;20.85;48.71
51986;BME280;38002;53.296;6.600;2023-05-01T13:30:33;101709.53;;;20.63;49.17
51986;BME280;38002;53.296;6.600;2023-05-01T13:35:33;101712.78;;;20.73;49.50
51986;BME280;38002;53.296;6.600;2023-05-01T13:40:34;101705.25;;;20.48;46.33
51986;BME280;38002;53.296;6.600;2023-05-01T13:45:35;101712.69;;;20.13;49.44
51986;BME280;38002;53.296;6.600;2023-05-01T13:50:37;101716.75;;;19.82;50.04
51986;BME280;38002;53.296;6.600;2023-05-01T13:55:39;101717.06;;;19.66;50.18
51986;BME280;38002;53.296;6.600;2023-05-01T14:00:43;101722.88;;;19.50;50.22
51986;BME280;38002;53.296;6.600;2023-05-01T14:05:45;101717.09;;;19.24;50.46
51986;BME280;38002;53.296;6.600;2023-05-01T14:10:46;101721.94;;;19.00;50.72
51986;BME280;38002;53.296;6.600;2023-05-01T14:15:47;101723.63;;;18.80;51.30
51986;BME280;38002;53.296;6.600;2023-05-01T14:20:48;101725.78;;;18.64;51.22
51986;BME280;38002;53.296;6.600;2023-05-01T14:25:49;101712.75;;;18.43;51.69
51986;BME280;38002;53.296;6.600;2023-05-01T14:30:50;101712.28;;;18.39;51.71
51986;BME280;38002;53.296;6.600;2023-05-01T14:35:53;101724.56;;;18.37;51.70
51986;BME280;38002;53.296;6.600;2023-05-01T14:40:54;101715.06;;;18.25;51.59
51986;BME280;38002;53.296;6.600;2023-05-01T14:45:54;101719.63;;;18.18;51.85
51986;BME280;38002;53.296;6.600;2023-05-01T14:50:55;101706.13;;;18.08;51.97
51986;BME280;38002;53.296;6.600;2023-05-01T14:55:57;101721.72;;;18.16;52.06
51986;BME280;38002;53.296;6.600;2023-05-01T15:00:57;101729.69;;;18.10;51.94
51986;BME280;38002;53.296;6.600;2023-05-01T15:05:57;101725.31;;;18.01;51.98
51986;BME280;38002;53.296;6.600;2023-05-01T15:10:58;101730.25;;;17.91;52.58
51986;BME280;38002;53.296;6.600;2023-05-01T15:15:59;101717.34;;;17.77;53.04
51986;BME280;38002;53.296;6.600;2023-05-01T15:20:59;101734.13;;;17.67;53.23
51986;BME280;38002;53.296;6.600;2023-05-01T15:26:00;101737.06;;;17.66;53.78
51986;BME280;38002;53.296;6.600;2023-05-01T15:31:00;101734.00;;;17.61;53.46
51986;BME280;38002;53.296;6.600;2023-05-01T15:36:01;101713.84;;;17.46;54.35
51986;BME280;38002;53.296;6.600;2023-05-01T15:41:01;101736.50;;;17.48;54.80
51986;BME280;38002;53.296;6.600;2023-05-01T15:46:02;101731.94;;;17.40;55.00
51986;BME280;38002;53.296;6.600;2023-05-01T15:51:02;101736.09;;;17.36;55.50
51986;BME280;38002;53.296;6.600;2023-05-01T15:56:04;101738.53;;;17.31;55.92
51986;BME280;38002;53.296;6.600;2023-05-01T16:01:04;101734.69;;;17.40;55.83
51986;BME280;38002;53.296;6.600;2023-05-01T16:06:05;101743.25;;;17.45;56.17
51986;BME280;38002;53.296;6.600;2023-05-01T16:11:06;101744.19;;;17.38;55.44
51986;BME280;38002;53.296;6.600;2023-05-01T16:16:09;101750.91;;;17.12;54.93
51986;BME280;38002;53.296;6.600;2023-05-01T16:21:11;101750.84;;;16.98;54.88
51986;BME280;38002;53.296;6.600;2023-05-01T16:26:17;101755.22;;;16.84;54.00
51986;BME280;38002;53.296;6.600;2023-05-01T16:31:18;101761.13;;;16.73;54.23
51986;BME280;38002;53.296;6.600;2023-05-01T16:36:19;101766.72;;;16.79;54.38
51986;BME280;38002;53.296;6.600;2023-05-01T16:41:20;101759.94;;;16.67;54.39
51986;BME280;38002;53.296;6.600;2023-05-01T16:46:21;101772.72;;;16.52;54.32
51986;BME280;38002;53.296;6.600;2023-05-01T16:51:22;101763.94;;;16.49;54.82
51986;BME280;38002;53.296;6.600;2023-05-01T16:56:23;101761.94;;;16.43;54.94
51986;BME280;38002;53.296;6.600;2023-05-01T17:01:23;101770.72;;;16.30;55.03
51986;BME280;38002;53.296;6.600;2023-05-01T17:06:24;101774.03;;;16.17;55.27
51986;BME280;38002;53.296;6.600;2023-05-01T17:11:25;101761.53;;;16.07;55.81
51986;BME280;38002;53.296;6.600;2023-05-01T17:16:26;101768.25;;;15.96;56.07
51986;BME280;38002;53.296;6.600;2023-05-01T17:21:27;101772.56;;;15.82;56.25
51986;BME280;38002;53.296;6.600;2023-05-01T17:26:35;101778.91;;;15.75;57.72
51986;BME280;38002;53.296;6.600;2023-05-01T17:31:35;101777.91;;;15.68;57.03
51986;BME280;38002;53.296;6.600;2023-05-01T17:36:36;101768.28;;;15.39;57.11
51986;BME280;38002;53.296;6.600;2023-05-01T17:41:37;101781.47;;;15.28;57.74
51986;BME280;38002;53.296;6.600;2023-05-01T17:46:37;101798.91;;;15.11;58.36
51986;BME280;38002;53.296;6.600;2023-05-01T17:51:38;101802.13;;;14.90;58.78
51986;BME280;38002;53.296;6.600;2023-05-01T17:56:38;101805.16;;;14.71;59.42
51986;BME280;38002;53.296;6.600;2023-05-01T18:01:39;101809.53;;;14.56;60.44
51986;BME280;38002;53.296;6.600;2023-05-01T18:06:40;101820.25;;;14.41;60.59
51986;BME280;38002;53.296;6.600;2023-05-01T18:11:40;101833.16;;;14.31;61.10
51986;BME280;38002;53.296;6.600;2023-05-01T18:16:41;101840.13;;;14.25;61.53
51986;BME280;38002;53.296;6.600;2023-05-01T18:21:41;101832.22;;;14.14;62.20
51986;BME280;38002;53.296;6.600;2023-05-01T18:26:42;101839.31;;;14.07;63.20
51986;BME280;38002;53.296;6.600;2023-05-01T18:31:42;101836.72;;;13.97;62.70
51986;BME280;38002;53.296;6.600;2023-05-01T18:36:43;101836.50;;;13.91;63.43
51986;BME280;38002;53.296;6.600;2023-05-01T18:41:43;101846.31;;;13.76;63.56
51986;BME280;38002;53.296;6.600;2023-05-01T18:46:44;101854.03;;;13.62;64.25
51986;BME280;38002;53.296;6.600;2023-05-01T18:51:44;101848.41;;;13.46;64.35
51986;BME280;38002;53.296;6.600;2023-05-01T18:56:45;101840.06;;;13.30;64.92
51986;BME280;38002;53.296;6.600;2023-05-01T19:01:45;101860.53;;;13.26;65.73
51986;BME280;38002;53.296;6.600;2023-05-01T19:06:46;101860.03;;;13.13;65.86
51986;BME280;38002;53.296;6.600;2023-05-01T19:11:47;101865.84;;;13.00;66.21
51986;BME280;38002;53.296;6.600;2023-05-01T19:16:47;101868.06;;;12.87;66.34
51986;BME280;38002;53.296;6.600;2023-05-01T19:21:48;101862.28;;;12.72;67.23
51986;BME280;38002;53.296;6.600;2023-05-01T19:26:49;101859.94;;;12.50;67.16
51986;BME280;38002;53.296;6.600;2023-05-01T19:31:50;101893.69;;;12.49;67.50
51986;BME280;38002;53.296;6.600;2023-05-01T19:36:50;101883.25;;;12.35;67.40
51986;BME280;38002;53.296;6.600;2023-05-01T19:41:56;101899.91;;;12.32;67.96
51986;BME280;38002;53.296;6.600;2023-05-01T19:47:00;101882.88;;;12.20;68.70
51986;BME280;38002;53.296;6.600;2023-05-01T19:52:01;101889.34;;;12.19;69.24
51986;BME280;38002;53.296;6.600;2023-05-01T19:57:01;101902.53;;;12.24;69.46
51986;BME280;38002;53.296;6.600;2023-05-01T20:02:02;101899.94;;;12.22;69.77
51986;BME280;38002;53.296;6.600;2023-05-01T20:07:03;101901.69;;;12.14;69.91
51986;BME280;38002;53.296;6.600;2023-05-01T20:12:03;101918.91;;;12.14;70.09
51986;BME280;38002;53.296;6.600;2023-05-01T20:17:04;101926.09;;;12.06;70.63
51986;BME280;38002;53.296;6.600;2023-05-01T20:22:06;101936.72;;;11.99;74.92
51986;BME280;38002;53.296;6.600;2023-05-01T20:27:06;101933.28;;;11.97;71.02
51986;BME280;38002;53.296;6.600;2023-05-01T20:32:07;101939.72;;;11.96;71.63
51986;BME280;38002;53.296;6.600;2023-05-01T20:37:07;101940.03;;;11.93;71.66
51986;BME280;38002;53.296;6.600;2023-05-01T20:42:08;101944.59;;;11.93;71.90
51986;BME280;38002;53.296;6.600;2023-05-01T20:47:11;101939.16;;;11.83;72.42
51986;BME280;38002;53.296;6.600;2023-05-01T20:52:12;101940.19;;;11.82;72.71
51986;BME280;38002;53.296;6.600;2023-05-01T20:57:14;101933.56;;;11.75;73.24
51986;BME280;38002;53.296;6.600;2023-05-01T21:02:15;101945.03;;;11.78;73.36
51986;BME280;38002;53.296;6.600;2023-05-01T21:07:16;101942.31;;;11.78;73.57
51986;BME280;38002;53.296;6.600;2023-05-01T21:12:16;101944.63;;;11.73;73.69
51986;BME280;38002;53.296;6.600;2023-05-01T21:17:17;101934.56;;;11.64;73.93
51986;BME280;38002;53.296;6.600;2023-05-01T21:22:22;101949.16;;;11.63;74.36
51986;BME280;38002;53.296;6.600;2023-05-01T21:27:23;101952.19;;;11.60;73.84
51986;BME280;38002;53.296;6.600;2023-05-01T21:37:30;101951.00;;;11.44;74.25
51986;BME280;38002;53.296;6.600;2023-05-01T21:42:35;101946.25;;;11.36;74.80
51986;BME280;38002;53.296;6.600;2023-05-01T21:47:40;101950.56;;;11.29;74.70
51986;BME280;38002;53.296;6.600;2023-05-01T21:52:41;101954.56;;;11.25;74.81
51986;BME280;38002;53.296;6.600;2023-05-01T21:57:42;101969.28;;;11.22;79.76
51986;BME280;38002;53.296;6.600;2023-05-01T22:02:45;101962.41;;;11.18;75.01
51986;BME280;38002;53.296;6.600;2023-05-01T22:07:47;101964.44;;;11.16;75.19
51986;BME280;38002;53.296;6.600;2023-05-01T22:12:47;101943.59;;;11.06;75.12
51986;BME280;38002;53.296;6.600;2023-05-01T22:17:48;101966.16;;;11.17;75.34
51986;BME280;38002;53.296;6.600;2023-05-01T22:22:48;101961.66;;;11.07;74.97
51986;BME280;38002;53.296;6.600;2023-05-01T22:27:49;101974.28;;;11.08;75.02
51986;BME280;38002;53.296;6.600;2023-05-01T22:32:49;101991.31;;;11.10;75.53
51986;BME280;38002;53.296;6.600;2023-05-01T22:37:50;102000.75;;;11.06;75.38
51986;BME280;38002;53.296;6.600;2023-05-01T22:42:50;102012.66;;;11.05;76.01
51986;BME280;38002;53.296;6.600;2023-05-01T22:47:51;102003.03;;;11.01;76.04
51986;BME280;38002;53.296;6.600;2023-05-01T22:52:51;102011.06;;;11.02;76.86
51986;BME280;38002;53.296;6.600;2023-05-01T22:57:52;102009.91;;;10.95;77.00
51986;BME280;38002;53.296;6.600;2023-05-01T23:02:52;102029.09;;;10.93;76.83
51986;BME280;38002;53.296;6.600;2023-05-01T23:07:52;102019.41;;;10.80;77.71
51986;BME280;38002;53.296;6.600;2023-05-01T23:12:53;102042.50;;;10.85;77.48
51986;BME280;38002;53.296;6.600;2023-05-01T23:17:54;102034.09;;;10.68;77.65
51986;BME280;38002;53.296;6.600;2023-05-01T23:22:55;102060.91;;;10.72;77.86
51986;BME280;38002;53.296;6.600;2023-05-01T23:27:55;102060.72;;;10.64;78.44
51986;BME280;38002;53.296;6.600;2023-05-01T23:32:56;102073.72;;;10.61;77.98
51986;BME280;38002;53.296;6.600;2023-05-01T23:37:57;102074.63;;;10.50;78.50
51986;BME280;38002;53.296;6.600;2023-05-01T23:42:58;102093.47;;;10.42;79.33
51986;BME280;38002;53.296;6.600;2023-05-01T23:47:58;102090.28;;;10.37;78.96
51986;BME280;38002;53.296;6.600;2023-05-01T23:53:04;102085.63;;;10.28;78.83
51986;BME280;38002;53.296;6.600;2023-05-01T23:58:06;102101.31;;;10.24;78.83
